createdAt,value
2022-08-14T00:00:42.209Z,74.50
2022-08-14T00:01:42.994Z,74.03
2022-08-14T00:02:42.444Z,74.08
2022-08-14T00:03:43.020Z,74.52
2022-08-14T00:04:44.874Z,74.92
2022-08-14T00:05:44.231Z,74.55
2022-08-14T00:06:44.048Z,75.35
2022-08-14T00:07:44.226Z,74.86
2022-08-14T00:08:45.554Z,75.10
2022-08-14T00:10:01.809Z,75.02
2022-08-14T00:10:50.156Z,75.05
2022-08-14T00:11:45.635Z,75.28
2022-08-14T00:12:53.383Z,76.56
2022-08-14T00:13:52.739Z,75.34
2022-08-14T00:14:46.935Z,75.81
2022-08-14T00:15:48.176Z,75.76
2022-08-14T00:16:47.647Z,75.91
2022-08-14T00:17:53.022Z,76.51
2022-08-14T00:19:05.987Z,76.76
2022-08-14T00:19:49.308Z,76.60
2022-08-14T00:20:49.559Z,76.49
2022-08-14T00:21:50.360Z,76.41
2022-08-14T00:22:57.869Z,76.66
2022-08-14T00:23:53.968Z,77.16
2022-08-14T00:24:50.907Z,77.61
2022-08-14T00:25:58.879Z,77.88
2022-08-14T00:26:06.530Z,77.79
2022-08-14T00:27:01.769Z,77.80
2022-08-14T00:28:01.466Z,77.52
2022-08-14T00:29:01.646Z,78.26
2022-08-14T00:30:02.067Z,78.12
2022-08-14T00:31:02.413Z,77.71
2022-08-14T00:32:05.929Z,77.78
2022-08-14T00:33:15.421Z,77.76
2022-08-14T00:34:36.684Z,77.71
2022-08-14T00:35:05.463Z,77.74
2022-08-14T00:36:37.432Z,77.46
2022-08-14T00:37:06.189Z,77.34
2022-08-14T00:38:07.054Z,77.21
2022-08-14T00:39:09.519Z,77.23
2022-08-14T00:40:19.179Z,77.60
2022-08-14T00:41:10.854Z,77.29
2022-08-14T00:42:21.016Z,77.02
2022-08-14T00:43:08.689Z,78.40
2022-08-14T00:44:08.691Z,78.33
2022-08-14T00:45:11.501Z,78.38
2022-08-14T00:46:32.266Z,78.54
2022-08-14T00:47:10.909Z,78.77
2022-08-14T00:48:10.398Z,78.98
2022-08-14T00:49:11.474Z,78.74
2022-08-14T00:50:11.199Z,78.02
2022-08-14T00:51:11.457Z,78.82
2022-08-14T00:52:14.236Z,78.11
2022-08-14T00:53:12.133Z,78.50
2022-08-14T00:54:21.516Z,78.19
2022-08-14T00:55:13.920Z,78.82
2022-08-14T00:56:14.176Z,78.77
2022-08-14T00:57:13.555Z,78.54
2022-08-14T00:57:22.664Z,79.12
2022-08-14T00:58:28.004Z,79.37
2022-08-14T00:59:22.910Z,78.94
2022-08-14T01:00:43.032Z,79.83
2022-08-14T01:01:24.007Z,79.52
2022-08-14T01:02:24.213Z,79.75
2022-08-14T01:03:25.530Z,79.06
2022-08-14T01:04:52.453Z,79.61
2022-08-14T01:05:25.173Z,79.54
2022-08-14T01:06:25.817Z,78.46
2022-08-14T01:07:27.140Z,78.91
2022-08-14T01:08:51.382Z,79.43
2022-08-14T01:09:26.612Z,79.58
2022-08-14T01:10:26.878Z,79.27
2022-08-14T01:11:35.285Z,79.72
2022-08-14T01:12:30.137Z,79.00
2022-08-14T01:13:28.161Z,78.31
2022-08-14T01:14:28.724Z,78.28
2022-08-14T01:15:31.638Z,78.44
2022-08-14T01:16:31.165Z,78.71
2022-08-14T01:17:29.108Z,78.87
2022-08-14T01:18:30.425Z,78.49
2022-08-14T01:19:30.945Z,78.85
2022-08-14T01:20:30.503Z,78.74
2022-08-14T01:21:31.540Z,79.35
2022-08-14T01:22:30.871Z,80.36
2022-08-14T01:23:46.490Z,81.26
2022-08-14T01:24:34.361Z,80.62
2022-08-14T01:25:31.896Z,80.89
2022-08-14T01:25:40.513Z,81.20
2022-08-14T01:26:41.016Z,81.08
2022-08-14T01:27:56.935Z,81.62
2022-08-14T01:28:56.625Z,81.60
2022-08-14T01:29:58.814Z,81.79
2022-08-14T01:30:42.331Z,81.27
2022-08-14T01:31:42.952Z,80.70
2022-08-14T01:32:44.215Z,80.38
2022-08-14T01:35:16.600Z,81.19
2022-08-14T01:35:18.333Z,81.19
2022-08-14T01:36:04.560Z,81.67
2022-08-14T01:36:45.052Z,81.11
2022-08-14T01:37:46.700Z,81.39
2022-08-14T01:38:45.781Z,81.49
2022-08-14T01:39:46.221Z,81.55
2022-08-14T01:40:46.353Z,80.78
2022-08-14T01:41:46.838Z,81.99
2022-08-14T01:42:47.082Z,81.94
2022-08-14T01:43:56.542Z,81.87
2022-08-14T01:44:49.926Z,83.17
2022-08-14T01:45:49.134Z,82.07
2022-08-14T01:46:48.410Z,81.76
2022-08-14T01:47:48.703Z,81.43
2022-08-14T01:48:49.028Z,81.46
2022-08-14T01:50:01.720Z,82.28
2022-08-14T01:50:49.879Z,82.97
2022-08-14T01:51:50.335Z,82.37
2022-08-14T01:52:58.648Z,81.87
2022-08-14T01:53:55.347Z,82.40
2022-08-14T01:54:58.302Z,83.80
2022-08-14T01:55:51.776Z,83.90
2022-08-14T01:56:55.759Z,83.46
2022-08-14T01:57:02.404Z,83.26
2022-08-14T01:58:18.524Z,83.26
2022-08-14T01:59:03.387Z,83.35
2022-08-14T02:00:04.712Z,83.93
2022-08-14T02:01:04.542Z,83.97
2022-08-14T02:02:05.117Z,84.38
2022-08-14T02:03:06.858Z,84.63
2022-08-14T02:04:40.819Z,84.28
2022-08-14T02:05:06.756Z,84.33
2022-08-14T02:06:32.198Z,84.58
2022-08-14T02:07:07.263Z,84.73
2022-08-14T02:08:09.599Z,85.60
2022-08-14T02:09:19.035Z,85.77
2022-08-14T02:10:08.810Z,86.85
2022-08-14T02:11:09.278Z,86.39
2022-08-14T02:12:10.738Z,86.60
2022-08-14T02:13:10.714Z,85.37
2022-08-14T02:14:11.095Z,84.35
2022-08-14T02:15:10.694Z,84.62
2022-08-14T02:16:13.550Z,85.41
2022-08-14T02:17:11.404Z,85.45
2022-08-14T02:18:15.141Z,84.67
2022-08-14T02:19:12.420Z,85.89
2022-08-14T02:20:12.896Z,85.41
2022-08-14T02:21:13.396Z,86.00
2022-08-14T02:22:13.758Z,86.09
2022-08-14T02:23:14.552Z,86.22
2022-08-14T02:24:38.976Z,86.14
2022-08-14T02:25:16.782Z,86.91
2022-08-14T02:26:24.146Z,88.32
2022-08-14T02:28:24.233Z,88.04
2022-08-14T02:28:24.525Z,88.62
2022-08-14T02:28:57.048Z,88.13
2022-08-14T02:29:25.213Z,87.72
2022-08-14T02:30:25.392Z,87.62
2022-08-14T02:31:36.081Z,86.71
2022-08-14T02:32:30.416Z,85.73
2022-08-14T02:33:29.372Z,86.06
2022-08-14T02:34:27.709Z,85.91
2022-08-14T02:35:32.670Z,86.23
2022-08-14T02:37:05.323Z,86.25
2022-08-14T02:37:46.412Z,86.70
2022-08-14T02:38:29.403Z,86.81
2022-08-14T02:39:29.933Z,86.43
2022-08-14T02:40:32.110Z,86.05
2022-08-14T02:41:34.992Z,86.09
2022-08-14T02:42:37.253Z,86.07
2022-08-14T02:43:36.428Z,86.34
2022-08-14T02:44:31.920Z,86.31
2022-08-14T02:45:32.825Z,86.89
2022-08-14T02:46:32.668Z,87.53
2022-08-14T02:47:33.050Z,87.39
2022-08-14T02:49:02.919Z,87.36
2022-08-14T02:49:34.451Z,87.68
2022-08-14T02:50:34.167Z,87.58
2022-08-14T02:51:34.572Z,88.22
2022-08-14T02:52:57.275Z,88.31
2022-08-14T02:53:37.503Z,88.02
2022-08-14T02:54:36.747Z,87.44
2022-08-14T02:55:37.988Z,87.54
2022-08-14T02:57:15.411Z,87.38
2022-08-14T02:57:40.109Z,87.78
2022-08-14T02:57:46.038Z,88.69
2022-08-14T02:58:46.935Z,88.82
2022-08-14T02:59:47.303Z,88.35
2022-08-14T03:00:48.756Z,88.92
2022-08-14T03:01:51.114Z,88.52
2022-08-14T03:02:58.950Z,88.41
2022-08-14T03:03:49.851Z,88.51
2022-08-14T03:04:51.189Z,89.25
2022-08-14T03:05:50.663Z,89.56
2022-08-14T03:06:57.820Z,89.32
2022-08-14T03:07:51.828Z,90.46
2022-08-14T03:08:51.604Z,90.10
2022-08-14T03:10:27.393Z,90.71
2022-08-14T03:10:52.033Z,90.23
2022-08-14T03:11:53.223Z,89.99
2022-08-14T03:12:52.616Z,89.59
2022-08-14T03:13:54.132Z,90.51
2022-08-14T03:14:54.313Z,90.54
2022-08-14T03:15:56.172Z,91.02
2022-08-14T03:16:53.806Z,91.00
2022-08-14T03:17:57.576Z,91.22
2022-08-14T03:18:54.377Z,90.79
2022-08-14T03:19:55.615Z,91.35
2022-08-14T03:20:56.113Z,91.66
2022-08-14T03:21:55.371Z,91.92
2022-08-14T03:22:55.748Z,92.28
2022-08-14T03:23:57.269Z,92.12
2022-08-14T03:24:06.002Z,93.03
2022-08-14T03:25:06.807Z,93.15
2022-08-14T03:26:07.716Z,92.83
2022-08-14T03:27:09.230Z,92.91
2022-08-14T03:28:14.386Z,93.21
2022-08-14T03:29:13.998Z,93.10
2022-08-14T03:30:14.596Z,92.82
2022-08-14T03:31:13.263Z,92.60
2022-08-14T03:32:11.028Z,92.61
2022-08-14T03:33:11.636Z,91.54
2022-08-14T03:34:24.542Z,91.71
2022-08-14T03:35:12.817Z,91.80
2022-08-14T03:37:39.185Z,91.10
2022-08-14T03:37:39.354Z,90.93
2022-08-14T03:39:11.968Z,90.79
2022-08-14T03:39:21.388Z,90.56
2022-08-14T03:40:18.370Z,90.35
2022-08-14T03:41:15.628Z,89.60
2022-08-14T03:42:19.629Z,90.18
2022-08-14T03:43:16.768Z,89.77
2022-08-14T03:45:26.969Z,89.93
2022-08-14T03:45:34.087Z,90.02
2022-08-14T03:46:38.864Z,90.18
2022-08-14T03:47:18.115Z,90.58
2022-08-14T03:48:27.453Z,91.00
2022-08-14T03:49:24.066Z,92.74
2022-08-14T03:50:23.728Z,92.35
2022-08-14T03:51:19.242Z,92.39
2022-08-14T03:52:38.228Z,92.01
2022-08-14T03:53:19.768Z,92.14
2022-08-14T03:54:21.186Z,91.67
2022-08-14T03:54:30.013Z,92.66
2022-08-14T03:55:30.394Z,92.54
2022-08-14T03:56:30.020Z,91.98
2022-08-14T03:57:31.501Z,91.48
2022-08-14T03:58:36.237Z,92.25
2022-08-14T03:59:31.078Z,93.03
2022-08-14T04:00:42.653Z,93.45
2022-08-14T04:01:39.144Z,93.16
2022-08-14T04:02:32.449Z,93.04
2022-08-14T04:03:32.422Z,92.62
2022-08-14T04:04:33.621Z,92.91
2022-08-14T04:05:37.931Z,94.46
2022-08-14T04:06:33.346Z,93.59
2022-08-14T04:07:36.118Z,94.35
2022-08-14T04:08:33.997Z,95.08
2022-08-14T04:09:35.539Z,95.29
2022-08-14T04:10:34.760Z,95.00
2022-08-14T04:11:35.360Z,95.31
2022-08-14T04:12:35.631Z,95.38
2022-08-14T04:13:35.799Z,95.54
2022-08-14T04:14:37.254Z,96.92
2022-08-14T04:15:56.692Z,97.01
2022-08-14T04:16:36.814Z,96.59
2022-08-14T04:17:37.494Z,97.10
2022-08-14T04:18:37.762Z,97.94
2022-08-14T04:19:38.195Z,98.57
2022-08-14T04:20:40.794Z,98.01
2022-08-14T04:21:59.900Z,98.72
2022-08-14T04:22:39.793Z,98.84
2022-08-14T04:23:40.072Z,97.65
2022-08-14T04:23:57.118Z,97.49
2022-08-14T04:24:52.043Z,97.49
2022-08-14T04:25:52.698Z,97.75
2022-08-14T04:26:52.965Z,99.37
2022-08-14T04:28:02.377Z,99.68
2022-08-14T04:29:05.258Z,99.48
2022-08-14T04:29:54.153Z,98.67
2022-08-14T04:30:54.434Z,97.69
2022-08-14T04:32:58.814Z,97.46
2022-08-14T04:33:00.851Z,97.32
2022-08-14T04:33:55.453Z,96.48
2022-08-14T04:34:55.796Z,96.49
2022-08-14T04:35:57.115Z,96.78
2022-08-14T04:36:56.295Z,97.21
2022-08-14T04:37:57.603Z,97.52
2022-08-14T04:38:57.289Z,97.49
2022-08-14T04:39:57.870Z,97.33
2022-08-14T04:40:57.283Z,97.42
2022-08-14T04:41:58.834Z,97.42
2022-08-14T04:42:57.923Z,97.31
2022-08-14T04:43:58.204Z,97.05
2022-08-14T04:45:00.906Z,97.28
2022-08-14T04:45:59.139Z,96.77
2022-08-14T04:46:59.760Z,96.44
2022-08-14T04:48:01.237Z,95.39
2022-08-14T04:49:01.443Z,95.68
2022-08-14T04:50:03.344Z,95.86
2022-08-14T04:51:01.083Z,95.44
2022-08-14T04:52:03.044Z,94.59
2022-08-14T04:52:18.921Z,94.48
2022-08-14T04:53:14.242Z,94.41
2022-08-14T04:54:16.618Z,94.89
2022-08-14T04:55:14.935Z,94.80
2022-08-14T04:56:30.616Z,94.43
2022-08-14T04:57:15.428Z,93.96
2022-08-14T04:58:21.868Z,93.93
2022-08-14T04:59:15.806Z,94.19
2022-08-14T05:00:18.198Z,94.80
2022-08-14T05:01:17.880Z,94.02
2022-08-14T05:02:16.577Z,95.07
2022-08-14T05:03:16.745Z,94.24
2022-08-14T05:04:19.924Z,93.53
2022-08-14T05:05:17.717Z,93.59
2022-08-14T05:06:37.376Z,93.46
2022-08-14T05:07:18.458Z,93.06
2022-08-14T05:08:31.817Z,92.35
2022-08-14T05:09:19.438Z,92.13
2022-08-14T05:10:21.927Z,92.11
2022-08-14T05:11:21.050Z,94.52
2022-08-14T05:13:24.256Z,94.38
2022-08-14T05:13:24.547Z,95.99
2022-08-14T05:14:46.399Z,95.75
2022-08-14T05:15:22.430Z,96.74
2022-08-14T05:16:22.794Z,96.70
2022-08-14T05:17:23.046Z,96.30
2022-08-14T05:19:16.859Z,95.52
2022-08-14T05:19:26.828Z,94.74
2022-08-14T05:19:33.013Z,93.94
2022-08-14T05:21:55.358Z,93.76
2022-08-14T05:21:59.542Z,92.58
2022-08-14T05:22:33.636Z,90.01
2022-08-14T05:23:34.717Z,89.39
2022-08-14T05:24:33.929Z,86.86
2022-08-14T05:25:35.608Z,85.81
2022-08-14T05:26:35.964Z,84.77
2022-08-14T05:27:36.413Z,83.54
2022-08-14T05:28:35.839Z,80.71
2022-08-14T05:29:36.306Z,77.36
2022-08-14T05:30:37.813Z,75.45
2022-08-14T05:31:40.591Z,74.18
2022-08-14T05:32:38.066Z,71.91
2022-08-14T05:33:38.335Z,72.44
2022-08-14T05:34:38.446Z,70.50
2022-08-14T05:35:39.011Z,69.99
2022-08-14T05:36:39.413Z,67.39
2022-08-14T05:37:39.545Z,66.55
2022-08-14T05:38:39.778Z,64.24
2022-08-14T05:39:41.191Z,64.34
2022-08-14T05:40:40.346Z,63.99
2022-08-14T05:41:53.364Z,63.54
2022-08-14T05:42:41.065Z,63.22
2022-08-14T05:43:41.967Z,61.88
2022-08-14T05:44:41.890Z,60.90
2022-08-14T05:45:42.018Z,58.93
2022-08-14T05:45:51.185Z,58.14
2022-08-14T05:46:51.862Z,58.10
2022-08-14T05:47:52.018Z,59.06
2022-08-14T05:48:53.246Z,59.84
2022-08-14T05:49:52.777Z,58.26
2022-08-14T05:50:54.560Z,58.11
2022-08-14T05:51:55.092Z,56.85
2022-08-14T05:52:55.742Z,56.82
2022-08-14T05:54:01.688Z,56.11
2022-08-14T05:54:55.233Z,56.23
2022-08-14T05:55:56.506Z,55.16
2022-08-14T05:56:56.865Z,54.82
2022-08-14T05:57:59.442Z,54.95
2022-08-14T05:58:56.530Z,55.54
2022-08-14T05:59:56.640Z,55.19
2022-08-14T06:00:57.473Z,54.51
2022-08-14T06:01:58.821Z,53.20
2022-08-14T06:02:58.015Z,53.40
2022-08-14T06:03:58.486Z,52.46
2022-08-14T06:04:59.873Z,51.69
2022-08-14T06:05:59.751Z,51.58
2022-08-14T06:06:59.950Z,50.84
2022-08-14T06:08:01.333Z,49.94
2022-08-14T06:09:01.790Z,49.59
2022-08-14T06:10:04.220Z,49.82
2022-08-14T06:10:09.967Z,49.78
2022-08-14T06:11:10.070Z,50.02
2022-08-14T06:12:11.956Z,49.80
2022-08-14T06:13:10.322Z,49.77
2022-08-14T06:14:20.839Z,49.22
2022-08-14T06:15:10.663Z,49.20
2022-08-14T06:16:11.902Z,48.33
2022-08-14T06:17:11.167Z,47.40
2022-08-14T06:18:11.334Z,47.43
2022-08-14T06:19:11.849Z,47.36
2022-08-14T06:20:12.151Z,46.49
2022-08-14T06:21:13.805Z,46.70
2022-08-14T06:22:13.077Z,47.78
2022-08-14T06:23:14.616Z,47.06
2022-08-14T06:24:18.187Z,47.08
2022-08-14T06:25:16.146Z,46.02
2022-08-14T06:26:15.514Z,45.46
2022-08-14T06:27:15.904Z,45.09
2022-08-14T06:28:26.951Z,44.80
2022-08-14T06:29:16.377Z,44.77
2022-08-14T06:30:17.721Z,44.63
2022-08-14T06:31:17.353Z,45.93
2022-08-14T06:32:38.726Z,45.72
2022-08-14T06:33:18.088Z,46.41
2022-08-14T06:35:03.149Z,46.94
2022-08-14T06:35:18.095Z,45.84
2022-08-14T06:36:19.521Z,46.65
2022-08-14T06:37:18.816Z,46.50
2022-08-14T06:37:27.461Z,45.82
2022-08-14T06:38:28.893Z,45.85
2022-08-14T06:39:36.473Z,46.28
2022-08-14T06:40:28.802Z,46.22
2022-08-14T06:41:57.930Z,45.21
2022-08-14T06:42:32.363Z,44.78
2022-08-14T06:43:30.330Z,45.58
2022-08-14T06:44:30.766Z,45.93
2022-08-14T06:45:29.469Z,45.17
2022-08-14T06:46:34.127Z,45.30
2022-08-14T06:47:30.157Z,44.52
2022-08-14T06:48:32.705Z,44.25
2022-08-14T06:49:30.607Z,44.88
2022-08-14T06:50:31.347Z,45.62
2022-08-14T06:51:38.866Z,46.74
2022-08-14T06:52:31.621Z,47.91
2022-08-14T06:53:32.841Z,47.77
2022-08-14T06:54:32.186Z,47.42
2022-08-14T06:55:32.265Z,47.08
2022-08-14T06:56:32.449Z,46.91
2022-08-14T06:57:34.009Z,48.01
2022-08-14T06:58:33.133Z,48.15
2022-08-14T06:59:34.340Z,46.83
2022-08-14T07:00:33.423Z,46.74
2022-08-14T07:01:34.905Z,46.37
2022-08-14T07:01:44.613Z,46.71
2022-08-14T07:02:44.961Z,46.57
2022-08-14T07:03:45.259Z,46.08
2022-08-14T07:04:45.525Z,45.32
2022-08-14T07:05:58.041Z,45.76
2022-08-14T07:06:47.713Z,45.05
2022-08-14T07:07:47.074Z,45.17
2022-08-14T07:08:47.308Z,45.19
2022-08-14T07:09:51.087Z,45.34
2022-08-14T07:10:48.231Z,45.98
2022-08-14T07:11:49.270Z,45.05
2022-08-14T07:12:56.382Z,45.67
2022-08-14T07:13:50.146Z,45.14
2022-08-14T07:14:50.554Z,45.23
2022-08-14T07:15:55.074Z,44.99
2022-08-14T07:16:51.549Z,44.51
2022-08-14T07:17:53.919Z,44.28
2022-08-14T07:18:52.503Z,44.89
2022-08-14T07:19:52.845Z,45.76
2022-08-14T07:20:53.197Z,46.14
2022-08-14T07:21:53.508Z,45.20
2022-08-14T07:22:56.061Z,45.19
2022-08-14T07:23:54.384Z,44.98
2022-08-14T07:24:54.853Z,45.01
2022-08-14T07:25:55.614Z,45.58
2022-08-14T07:26:56.045Z,45.15
2022-08-14T07:27:57.348Z,44.76
2022-08-14T07:28:56.412Z,44.33
2022-08-14T07:29:56.643Z,45.51
2022-08-14T07:30:05.263Z,45.39
2022-08-14T07:31:05.937Z,45.41
2022-08-14T07:32:06.754Z,45.98
2022-08-14T07:33:07.207Z,45.65
2022-08-14T07:34:08.508Z,46.10
2022-08-14T07:35:07.776Z,45.16
2022-08-14T07:36:09.043Z,45.44
2022-08-14T07:37:08.659Z,46.17
2022-08-14T07:38:09.420Z,46.07
2022-08-14T07:39:12.292Z,46.13
2022-08-14T07:40:10.417Z,46.07
2022-08-14T07:41:14.505Z,46.51
2022-08-14T07:42:11.456Z,46.14
2022-08-14T07:43:14.752Z,45.99
2022-08-14T07:44:32.070Z,46.94
2022-08-14T07:45:13.339Z,46.21
2022-08-14T07:46:15.228Z,46.27
2022-08-14T07:47:14.487Z,45.27
2022-08-14T07:48:16.576Z,44.92
2022-08-14T07:49:15.261Z,45.62
2022-08-14T07:50:18.579Z,45.00
2022-08-14T07:51:15.589Z,45.58
2022-08-14T07:52:22.209Z,45.05
2022-08-14T07:53:16.171Z,45.66
2022-08-14T07:54:23.689Z,45.64
2022-08-14T07:55:20.994Z,45.19
2022-08-14T07:56:36.756Z,45.60
2022-08-14T07:57:24.776Z,45.77
2022-08-14T07:58:31.721Z,45.67
2022-08-14T07:59:19.428Z,46.94
2022-08-14T07:59:41.524Z,46.69
2022-08-14T08:00:33.448Z,46.59
2022-08-14T08:01:31.512Z,46.56
2022-08-14T08:02:32.487Z,46.79
2022-08-14T08:03:31.104Z,46.82
2022-08-14T08:04:34.047Z,47.06
2022-08-14T08:05:31.509Z,46.96
2022-08-14T08:06:32.664Z,47.53
2022-08-14T08:07:32.263Z,47.91
2022-08-14T08:08:33.023Z,48.33
2022-08-14T08:09:34.573Z,48.99
2022-08-14T08:11:02.389Z,49.24
2022-08-14T08:11:34.972Z,49.61
2022-08-14T08:12:34.450Z,49.59
2022-08-14T08:13:34.602Z,49.55
2022-08-14T08:14:56.825Z,49.98
2022-08-14T08:15:35.784Z,49.67
2022-08-14T08:16:36.444Z,50.31
2022-08-14T08:17:38.706Z,51.12
2022-08-14T08:18:37.091Z,51.33
2022-08-14T08:19:37.372Z,50.88
2022-08-14T08:20:37.837Z,51.02
2022-08-14T08:21:39.650Z,51.43
2022-08-14T08:22:38.840Z,51.30
2022-08-14T08:23:50.863Z,52.02
2022-08-14T08:24:39.720Z,52.08
2022-08-14T08:24:50.352Z,52.06
2022-08-14T08:25:49.842Z,52.03
2022-08-14T08:26:50.850Z,52.21
2022-08-14T08:27:50.633Z,52.12
2022-08-14T08:28:50.808Z,51.73
2022-08-14T08:29:51.364Z,51.69
2022-08-14T08:30:51.370Z,52.46
2022-08-14T08:31:52.573Z,52.66
2022-08-14T08:32:51.748Z,52.85
2022-08-14T08:33:52.099Z,52.79
2022-08-14T08:34:53.541Z,52.77
2022-08-14T08:35:52.725Z,52.75
2022-08-14T08:36:52.904Z,52.12
2022-08-14T08:38:01.265Z,51.44
2022-08-14T08:39:17.706Z,52.43
2022-08-14T08:40:02.906Z,52.45
2022-08-14T08:40:54.559Z,52.58
2022-08-14T08:41:54.899Z,52.98
2022-08-14T08:42:57.068Z,52.39
2022-08-14T08:43:55.110Z,52.70
2022-08-14T08:44:55.248Z,52.62
2022-08-14T08:45:56.439Z,52.74
2022-08-14T08:46:57.053Z,52.05
2022-08-14T08:47:16.152Z,52.75
2022-08-14T08:48:20.607Z,52.78
2022-08-14T08:49:16.580Z,52.90
2022-08-14T08:50:23.128Z,52.57
2022-08-14T08:51:16.800Z,52.22
2022-08-14T08:52:24.980Z,52.26
2022-08-14T08:53:17.476Z,52.08
2022-08-14T08:54:20.147Z,52.80
2022-08-14T08:55:18.254Z,52.44
2022-08-14T08:56:30.650Z,53.04
2022-08-14T08:57:21.448Z,53.47
2022-08-14T08:58:19.972Z,53.28
2022-08-14T08:59:18.835Z,53.09
2022-08-14T09:00:25.805Z,52.72
2022-08-14T09:01:20.170Z,52.67
2022-08-14T09:02:20.235Z,53.27
2022-08-14T09:03:21.406Z,52.15
2022-08-14T09:04:21.843Z,52.29
2022-08-14T09:05:22.922Z,52.00
2022-08-14T09:06:52.282Z,52.18
2022-08-14T09:07:21.572Z,52.19
2022-08-14T09:08:30.299Z,52.60
2022-08-14T09:08:33.006Z,52.15
2022-08-14T09:09:33.974Z,52.09
2022-08-14T09:10:31.509Z,51.88
2022-08-14T09:11:33.450Z,52.16
2022-08-14T09:12:33.176Z,52.51
2022-08-14T09:13:33.055Z,52.10
2022-08-14T09:14:33.104Z,51.85
2022-08-14T09:15:36.821Z,52.54
2022-08-14T09:16:45.102Z,51.75
2022-08-14T09:17:36.264Z,52.10
2022-08-14T09:18:35.763Z,51.48
2022-08-14T09:19:36.431Z,51.69
2022-08-14T09:20:37.314Z,51.66
2022-08-14T09:21:38.872Z,51.52
2022-08-14T09:22:42.561Z,50.75
2022-08-14T09:24:28.923Z,51.70
2022-08-14T09:24:44.110Z,51.70
2022-08-14T09:25:59.675Z,51.74
2022-08-14T09:26:39.794Z,51.62
2022-08-14T09:27:41.508Z,51.87
2022-08-14T09:28:41.008Z,52.28
2022-08-14T09:29:41.579Z,52.58
2022-08-14T09:30:42.210Z,51.72
2022-08-14T09:31:42.909Z,51.61
2022-08-14T09:33:10.626Z,51.48
2022-08-14T09:33:56.625Z,51.44
2022-08-14T09:34:38.623Z,50.62
2022-08-14T09:35:43.584Z,50.63
2022-08-14T09:36:38.841Z,51.00
2022-08-14T09:37:39.421Z,50.67
2022-08-14T09:38:40.465Z,50.34
2022-08-14T09:39:39.692Z,50.49
2022-08-14T09:40:40.024Z,50.73
2022-08-14T09:42:20.280Z,50.79
2022-08-14T09:42:45.182Z,50.57
2022-08-14T09:43:41.549Z,49.88
2022-08-14T09:44:42.800Z,50.00
2022-08-14T09:45:53.526Z,50.12
2022-08-14T09:46:42.857Z,50.17
2022-08-14T09:47:43.071Z,50.06
2022-08-14T09:48:43.362Z,50.00
2022-08-14T09:49:43.642Z,49.95
2022-08-14T09:50:43.969Z,49.25
2022-08-14T09:51:58.304Z,50.01
2022-08-14T09:52:51.576Z,49.17
2022-08-14T09:54:18.643Z,48.96
2022-08-14T09:54:46.365Z,49.07
2022-08-14T09:55:47.335Z,49.12
2022-08-14T09:56:51.691Z,49.01
2022-08-14T09:57:48.799Z,49.83
2022-08-14T09:58:49.222Z,50.52
2022-08-14T09:59:07.209Z,49.37
2022-08-14T10:00:08.383Z,49.41
2022-08-14T10:01:08.267Z,49.29
2022-08-14T10:02:09.783Z,48.95
2022-08-14T10:03:08.881Z,48.68
2022-08-14T10:04:24.265Z,48.77
2022-08-14T10:05:09.007Z,48.27
2022-08-14T10:06:10.394Z,48.61
2022-08-14T10:07:10.073Z,49.09
2022-08-14T10:08:14.958Z,48.61
2022-08-14T10:09:11.914Z,49.48
2022-08-14T10:10:23.062Z,49.40
2022-08-14T10:11:11.480Z,49.90
2022-08-14T10:12:18.701Z,49.45
2022-08-14T10:13:12.394Z,48.37
2022-08-14T10:14:12.702Z,48.09
2022-08-14T10:15:13.072Z,47.56
2022-08-14T10:16:26.007Z,47.79
2022-08-14T10:17:13.764Z,47.90
2022-08-14T10:18:17.815Z,47.92
2022-08-14T10:19:14.337Z,48.34
2022-08-14T10:20:40.197Z,47.87
2022-08-14T10:21:15.243Z,47.98
2022-08-14T10:23:12.581Z,47.93
2022-08-14T10:23:17.851Z,47.51
2022-08-14T10:24:17.573Z,47.92
2022-08-14T10:25:16.759Z,47.27
2022-08-14T10:26:23.073Z,47.35
2022-08-14T10:27:17.758Z,47.69
2022-08-14T10:28:39.052Z,47.65
2022-08-14T10:29:23.364Z,47.97
2022-08-14T10:29:26.845Z,48.19
2022-08-14T10:30:27.401Z,48.12
2022-08-14T10:31:28.250Z,47.63
2022-08-14T10:32:40.104Z,47.48
2022-08-14T10:33:29.167Z,46.50
2022-08-14T10:34:35.704Z,46.81
2022-08-14T10:35:30.942Z,47.01
2022-08-14T10:36:35.251Z,46.85
2022-08-14T10:37:30.964Z,46.14
2022-08-14T10:38:31.803Z,46.19
2022-08-14T10:39:32.660Z,46.00
2022-08-14T10:40:38.929Z,45.72
2022-08-14T10:41:33.931Z,45.70
2022-08-14T10:42:34.595Z,46.48
2022-08-14T10:43:35.459Z,46.03
2022-08-14T10:44:35.691Z,45.69
2022-08-14T10:45:46.382Z,45.47
2022-08-14T10:47:39.943Z,45.06
2022-08-14T10:48:05.716Z,44.94
2022-08-14T10:48:42.163Z,45.15
2022-08-14T10:49:39.458Z,45.46
2022-08-14T10:50:40.112Z,45.38
2022-08-14T10:51:41.812Z,45.33
2022-08-14T10:52:42.252Z,45.16
2022-08-14T10:53:41.451Z,44.87
2022-08-14T10:53:59.106Z,45.59
2022-08-14T10:54:59.966Z,45.58
2022-08-14T10:56:00.554Z,45.45
2022-08-14T10:57:03.637Z,45.45
2022-08-14T10:58:03.402Z,45.56
2022-08-14T10:59:01.404Z,45.96
2022-08-14T11:00:01.610Z,45.16
2022-08-14T11:01:01.756Z,45.42
2022-08-14T11:02:02.680Z,45.49
2022-08-14T11:03:03.047Z,45.20
2022-08-14T11:04:03.892Z,45.19
2022-08-14T11:05:04.936Z,44.86
2022-08-14T11:06:04.714Z,44.98
2022-08-14T11:07:06.024Z,44.78
2022-08-14T11:08:09.232Z,44.94
2022-08-14T11:09:06.326Z,44.48
2022-08-14T11:10:06.999Z,44.89
2022-08-14T11:11:07.357Z,44.90
2022-08-14T11:12:34.846Z,44.78
2022-08-14T11:13:07.455Z,44.80
2022-08-14T11:14:09.496Z,45.25
2022-08-14T11:15:07.750Z,44.97
2022-08-14T11:16:41.627Z,45.42
2022-08-14T11:17:33.373Z,45.22
2022-08-14T11:18:40.072Z,45.15
2022-08-14T11:19:34.158Z,44.29
2022-08-14T11:20:35.007Z,43.57
2022-08-14T11:21:36.643Z,44.36
2022-08-14T11:23:03.128Z,45.12
2022-08-14T11:23:38.624Z,45.09
2022-08-14T11:24:54.679Z,45.04
2022-08-14T11:25:44.361Z,44.92
2022-08-14T11:26:37.915Z,44.06
2022-08-14T11:27:39.876Z,44.81
2022-08-14T11:28:47.605Z,44.95
2022-08-14T11:29:40.191Z,45.52
2022-08-14T11:30:49.868Z,44.39
2022-08-14T11:31:41.679Z,44.93
2022-08-14T11:32:41.602Z,43.91
2022-08-14T11:33:42.002Z,44.31
2022-08-14T11:34:42.281Z,44.12
2022-08-14T11:35:47.718Z,45.18
2022-08-14T11:37:03.786Z,44.87
2022-08-14T11:37:43.210Z,45.66
2022-08-14T11:38:49.279Z,45.69
2022-08-14T11:39:45.589Z,45.68
2022-08-14T11:40:43.592Z,45.40
2022-08-14T11:41:46.653Z,45.95
2022-08-14T11:42:56.184Z,45.61
2022-08-14T11:43:55.794Z,45.51
2022-08-14T11:44:46.959Z,45.76
2022-08-14T11:45:46.166Z,46.12
2022-08-14T11:45:55.250Z,45.60
2022-08-14T11:46:56.857Z,45.58
2022-08-14T11:48:12.881Z,46.00
2022-08-14T11:49:04.265Z,45.45
2022-08-14T11:49:57.409Z,45.51
2022-08-14T11:50:57.627Z,45.41
2022-08-14T11:51:57.680Z,45.52
2022-08-14T11:53:02.345Z,45.08
2022-08-14T11:53:58.671Z,44.88
2022-08-14T11:54:59.871Z,44.99
2022-08-14T11:56:00.007Z,45.19
2022-08-14T11:56:59.643Z,45.47
2022-08-14T11:57:59.904Z,45.34
2022-08-14T11:59:00.198Z,45.58
2022-08-14T12:00:00.660Z,46.02
2022-08-14T12:01:01.355Z,45.43
2022-08-14T12:02:02.745Z,44.80
2022-08-14T12:03:04.102Z,44.81
2022-08-14T12:04:02.604Z,45.20
2022-08-14T12:05:04.160Z,44.95
2022-08-14T12:06:03.535Z,44.39
2022-08-14T12:07:03.729Z,44.09
2022-08-14T12:08:06.610Z,44.56
2022-08-14T12:09:08.624Z,44.09
2022-08-14T12:10:27.130Z,44.21
2022-08-14T12:11:06.814Z,44.56
2022-08-14T12:12:08.577Z,43.93
2022-08-14T12:12:34.985Z,43.78
2022-08-14T12:13:18.319Z,43.72
2022-08-14T12:14:30.325Z,43.83
2022-08-14T12:15:19.237Z,44.03
2022-08-14T12:16:20.741Z,43.55
2022-08-14T12:17:23.882Z,43.91
2022-08-14T12:18:21.546Z,44.37
2022-08-14T12:19:21.861Z,44.65
2022-08-14T12:20:30.192Z,43.41
2022-08-14T12:21:22.812Z,43.77
2022-08-14T12:22:29.800Z,43.41
2022-08-14T12:23:24.807Z,44.19
2022-08-14T12:24:35.776Z,44.52
2022-08-14T12:25:25.157Z,44.31
2022-08-14T12:26:39.545Z,43.89
2022-08-14T12:27:25.598Z,43.74
2022-08-14T12:28:33.387Z,43.93
2022-08-14T12:29:26.131Z,43.45
2022-08-14T12:30:29.131Z,43.85
2022-08-14T12:31:26.959Z,43.00
2022-08-14T12:32:28.304Z,43.85
2022-08-14T12:33:32.801Z,44.35
2022-08-14T12:34:28.289Z,44.25
2022-08-14T12:35:29.934Z,44.01
2022-08-14T12:36:30.197Z,44.13
2022-08-14T12:37:29.950Z,43.41